Time;durP1;ratioP1;P1;durP2;ratioP2;P2;SDS_P1;SDS_P2;PMS_P1;PMS_P2;Temp;Humidity;BMP_temperature;BMP_pressure;BME280_temperature;BME280_humidity;BME280_pressure;Samples;Min_cycle;Max_cycle;Signal;HPM_P1;HPM_P2
2022/10/25 00:03:33;;;;;;;4.80;4.07;;;12.80;99.90;;;;;;8402847;28;20396;-70
2022/10/25 00:07:34;;;;;;;6.77;3.93;;;12.70;99.90;;;;;;8400897;28;20216;-71
2022/10/25 00:11:35;;;;;;;4.73;3.97;;;12.70;99.90;;;;;;8399408;28;20296;-71
2022/10/25 00:15:36;;;;;;;5.63;4.03;;;12.70;99.90;;;;;;8398468;28;20195;-72
2022/10/25 00:19:37;;;;;;;6.63;3.57;;;12.70;99.90;;;;;;8417383;28;20184;-72
2022/10/25 00:23:38;;;;;;;4.53;3.83;;;12.70;99.90;;;;;;8397586;28;20189;-71
2022/10/25 00:27:39;;;;;;;4.20;3.70;;;12.70;99.90;;;;;;8395468;28;20283;-73
2022/10/25 00:31:39;;;;;;;4.43;3.60;;;12.70;99.90;;;;;;8415195;28;20520;-71
2022/10/25 00:35:40;;;;;;;7.73;3.83;;;12.60;99.90;;;;;;8416318;28;20183;-71
2022/10/25 00:39:41;;;;;;;4.53;3.60;;;12.60;99.90;;;;;;8398028;28;20211;-71
2022/10/25 00:43:46;;;;;;;5.30;4.20;;;12.50;99.90;;;;;;8396141;28;20185;-71
2022/10/25 00:47:49;;;;;;;5.07;4.00;;;12.50;99.90;;;;;;8396715;28;20262;-71
2022/10/25 00:51:56;;;;;;;7.23;4.10;;;12.40;99.90;;;;;;8393763;28;20188;-72
2022/10/25 00:56:13;;;;;;;8.83;3.77;;;12.40;99.90;;;;;;8379629;28;20196;-71
2022/10/25 01:00:14;;;;;;;4.93;4.00;;;12.30;99.90;;;;;;8397859;28;20205;-71
2022/10/25 01:04:17;;;;;;;4.47;3.63;;;12.30;99.90;;;;;;8392430;28;20207;-71
2022/10/25 01:08:20;;;;;;;4.57;3.67;;;12.30;99.90;;;;;;8414482;28;20204;-72
2022/10/25 01:12:21;;;;;;;5.23;4.00;;;12.30;99.90;;;;;;8395898;28;20238;-71
2022/10/25 01:16:33;;;;;;;7.03;3.70;;;12.30;99.90;;;;;;8396669;28;20295;-72
2022/10/25 01:20:49;;;;;;;6.47;4.03;;;12.30;99.90;;;;;;8412628;28;20185;-72
2022/10/25 01:25:08;;;;;;;5.67;3.90;;;12.20;99.90;;;;;;8393252;28;20212;-71
2022/10/25 01:29:46;;;;;;;4.73;4.27;;;12.20;99.90;;;;;;8392938;28;20817;-72
2022/10/25 01:34:19;;;;;;;9.33;3.70;;;12.20;99.90;;;;;;8397981;28;20213;-71
2022/10/25 01:38:38;;;;;;;7.97;4.17;;;12.20;99.90;;;;;;8414921;28;20179;-72
2022/10/25 01:42:50;;;;;;;6.07;4.20;;;12.20;99.90;;;;;;8414068;28;20188;-71
2022/10/25 01:46:54;;;;;;;6.37;4.43;;;12.20;99.90;;;;;;8412245;28;20511;-71
2022/10/25 01:51:04;;;;;;;7.53;3.77;;;12.20;99.90;;;;;;8392089;28;20222;-71
2022/10/25 01:55:12;;;;;;;6.73;4.13;;;12.20;99.90;;;;;;8411040;28;20192;-71
2022/10/25 01:59:18;;;;;;;7.13;3.70;;;12.10;99.90;;;;;;8409483;28;20204;-72
2022/10/25 02:03:45;;;;;;;5.77;4.03;;;12.10;99.90;;;;;;8413847;28;20208;-72
2022/10/25 02:07:52;;;;;;;6.77;4.43;;;12.10;99.90;;;;;;8409767;28;20204;-72
2022/10/25 02:11:55;;;;;;;6.63;4.10;;;12.10;99.90;;;;;;8386086;28;20177;-72
2022/10/25 02:16:11;;;;;;;5.50;4.00;;;12.10;99.90;;;;;;8395290;28;20192;-71
2022/10/25 02:20:16;;;;;;;5.83;4.13;;;12.20;99.90;;;;;;8412381;28;20180;-71
2022/10/25 02:24:21;;;;;;;6.73;4.27;;;12.20;99.90;;;;;;8412416;28;20184;-72
2022/10/25 02:28:25;;;;;;;6.37;3.90;;;12.10;99.90;;;;;;8411477;28;20258;-72
2022/10/25 02:32:26;;;;;;;6.80;4.17;;;12.00;99.90;;;;;;8393200;28;20284;-72
2022/10/25 02:36:27;;;;;;;5.50;3.97;;;12.00;99.90;;;;;;8416268;28;20192;-71
2022/10/25 02:40:28;;;;;;;6.43;4.43;;;12.00;99.90;;;;;;8401733;28;20184;-72
2022/10/25 02:44:29;;;;;;;8.47;4.87;;;11.90;99.90;;;;;;8416608;28;20215;-72
2022/10/25 02:48:30;;;;;;;7.00;4.93;;;12.00;99.90;;;;;;8396003;28;20198;-72
2022/10/25 02:52:31;;;;;;;9.47;4.47;;;11.90;99.90;;;;;;8401093;28;20180;-71
2022/10/25 02:56:31;;;;;;;5.90;4.27;;;11.90;99.90;;;;;;8400003;28;20185;-72
2022/10/25 03:00:32;;;;;;;6.43;4.30;;;11.90;99.90;;;;;;8416251;28;20189;-73
2022/10/25 03:04:33;;;;;;;5.00;4.37;;;11.80;99.90;;;;;;8415940;28;20216;-72
2022/10/25 03:08:34;;;;;;;6.83;3.90;;;11.80;99.90;;;;;;8394916;28;20192;-71
2022/10/25 03:12:35;;;;;;;5.07;4.00;;;11.80;99.90;;;;;;8401048;28;20260;-71
2022/10/25 03:16:36;;;;;;;5.07;4.40;;;11.70;99.90;;;;;;8416987;28;20192;-72
2022/10/25 03:20:37;;;;;;;7.03;3.93;;;11.60;99.90;;;;;;8406261;28;20181;-72
2022/10/25 03:24:37;;;;;;;6.60;4.27;;;11.50;99.90;;;;;;8417532;28;20231;-72
2022/10/25 03:28:38;;;;;;;6.10;4.30;;;11.50;99.90;;;;;;8415094;28;20177;-72
2022/10/25 03:32:39;;;;;;;8.47;4.53;;;11.40;99.90;;;;;;8400783;28;20272;-71
2022/10/25 03:36:40;;;;;;;4.70;3.90;;;11.40;99.90;;;;;;8416332;28;20181;-72
2022/10/25 03:40:41;;;;;;;10.60;4.47;;;11.40;99.90;;;;;;8417441;28;20184;-71
2022/10/25 03:44:41;;;;;;;7.07;4.47;;;11.40;99.90;;;;;;8399424;28;20200;-72
2022/10/25 03:48:42;;;;;;;6.77;4.07;;;11.30;99.90;;;;;;8396131;28;20187;-71
2022/10/25 03:52:43;;;;;;;5.53;4.23;;;11.30;99.90;;;;;;8395225;28;20195;-71
2022/10/25 03:56:44;;;;;;;4.80;4.33;;;11.40;99.90;;;;;;8393131;28;20200;-71
2022/10/25 04:00:45;;;;;;;6.20;4.90;;;11.50;99.90;;;;;;8411996;28;20198;-72
2022/10/25 04:04:45;;;;;;;8.37;4.63;;;11.60;99.90;;;;;;8394071;28;20220;-71
2022/10/25 04:08:46;;;;;;;9.00;4.90;;;11.80;99.90;;;;;;8413738;28;20241;-71
2022/10/25 04:12:47;;;;;;;7.97;4.73;;;11.90;99.90;;;;;;8396137;28;20179;-72
2022/10/25 04:16:48;;;;;;;5.20;4.70;;;12.00;99.90;;;;;;8396617;28;20181;-71
2022/10/25 04:20:49;;;;;;;6.20;4.67;;;12.00;99.90;;;;;;8412872;28;20184;-76
2022/10/25 04:24:49;;;;;;;8.60;4.97;;;12.00;99.90;;;;;;8416050;28;20455;-73
2022/10/25 04:28:52;;;;;;;6.10;4.10;;;12.00;99.90;;;;;;8397380;28;20262;-70
2022/10/25 04:32:52;;;;;;;5.83;4.23;;;11.90;99.90;;;;;;8414583;28;20177;-71
2022/10/25 04:36:53;;;;;;;5.90;4.83;;;11.90;99.90;;;;;;8397059;28;20505;-71
2022/10/25 04:40:59;;;;;;;9.53;4.70;;;11.90;99.90;;;;;;8396864;28;20179;-71
2022/10/25 04:45:00;;;;;;;6.37;4.43;;;11.90;99.90;;;;;;8416012;28;20310;-72
2022/10/25 04:49:01;;;;;;;4.77;4.23;;;11.90;99.90;;;;;;8396225;28;20501;-71
2022/10/25 04:53:03;;;;;;;5.03;4.03;;;11.90;99.90;;;;;;8398409;28;20254;-70
2022/10/25 04:57:06;;;;;;;5.20;3.93;;;11.80;99.90;;;;;;8415780;28;20201;-72
2022/10/25 05:01:13;;;;;;;5.63;4.20;;;11.90;99.90;;;;;;8398883;28;20202;-71
2022/10/25 05:05:14;;;;;;;8.50;4.03;;;11.90;99.90;;;;;;8399158;28;20441;-71
2022/10/25 05:09:14;;;;;;;4.80;3.67;;;12.00;99.90;;;;;;8391831;28;20416;-72
2022/10/25 05:13:15;;;;;;;6.70;4.37;;;12.10;99.90;;;;;;8420335;28;20204;-71
2022/10/25 05:17:16;;;;;;;5.60;3.83;;;12.10;99.90;;;;;;8401953;28;20185;-71
2022/10/25 05:21:17;;;;;;;7.33;4.27;;;12.20;99.90;;;;;;8406219;28;20198;-71
2022/10/25 05:25:18;;;;;;;8.27;4.00;;;12.20;99.90;;;;;;8418926;28;20220;-72
2022/10/25 05:29:19;;;;;;;5.17;4.20;;;12.30;99.90;;;;;;8398033;28;20172;-72
2022/10/25 05:33:20;;;;;;;6.23;4.10;;;12.30;99.90;;;;;;8402732;28;20192;-71
2022/10/25 05:37:21;;;;;;;4.93;4.03;;;12.40;99.90;;;;;;8415912;28;20189;-71
2022/10/25 05:41:22;;;;;;;4.47;3.50;;;12.40;99.90;;;;;;8399353;28;20177;-72
2022/10/25 05:45:23;;;;;;;7.20;3.87;;;12.50;99.90;;;;;;8399818;28;20238;-71
2022/10/25 05:49:23;;;;;;;7.70;3.40;;;12.50;99.90;;;;;;8414602;28;20172;-70
2022/10/25 05:53:24;;;;;;;5.80;3.53;;;12.50;99.90;;;;;;8411055;28;20185;-71
2022/10/25 05:57:25;;;;;;;5.50;3.40;;;12.60;99.90;;;;;;8411486;28;20200;-71
2022/10/25 06:01:26;;;;;;;6.63;3.57;;;12.70;99.90;;;;;;8414027;28;20192;-71
2022/10/25 06:05:27;;;;;;;6.03;2.70;;;12.80;99.90;;;;;;8415421;28;20242;-71
2022/10/25 06:09:28;;;;;;;6.87;3.30;;;12.90;99.90;;;;;;8408170;28;20192;-72
2022/10/25 06:13:29;;;;;;;6.30;3.20;;;12.90;99.90;;;;;;8395593;28;20211;-71
2022/10/25 06:17:30;;;;;;;5.10;3.10;;;13.00;99.90;;;;;;8395038;28;20218;-72
2022/10/25 06:21:30;;;;;;;6.57;3.73;;;13.00;99.90;;;;;;8398975;28;20206;-71
2022/10/25 06:25:31;;;;;;;6.53;3.13;;;12.90;99.90;;;;;;8420379;28;20193;-72
2022/10/25 06:29:32;;;;;;;5.73;3.17;;;12.90;99.90;;;;;;8415934;28;20248;-71
2022/10/25 06:33:33;;;;;;;8.37;3.50;;;12.80;99.90;;;;;;8407199;28;20172;-71
2022/10/25 06:37:34;;;;;;;5.33;2.73;;;12.90;99.90;;;;;;8405209;28;20180;-70
2022/10/25 06:41:35;;;;;;;4.37;3.17;;;12.90;99.90;;;;;;8428705;28;20195;-70
2022/10/25 06:45:36;;;;;;;3.90;2.73;;;12.90;99.90;;;;;;8411110;28;20200;-72
2022/10/25 06:49:36;;;;;;;6.60;3.20;;;13.00;99.90;;;;;;8404092;28;20188;-72
2022/10/25 06:53:37;;;;;;;5.80;3.10;;;13.00;99.90;;;;;;8424355;28;20185;-71
2022/10/25 06:57:38;;;;;;;6.80;3.70;;;13.10;99.90;;;;;;8400291;28;20536;-70
2022/10/25 07:01:39;;;;;;;6.03;3.00;;;13.20;99.90;;;;;;8401710;28;20279;-70
2022/10/25 07:05:39;;;;;;;4.10;3.07;;;13.20;99.90;;;;;;8415586;28;20200;-71
2022/10/25 07:09:40;;;;;;;5.60;3.10;;;13.40;99.90;;;;;;8417187;28;20268;-70
2022/10/25 07:13:41;;;;;;;4.17;3.03;;;13.80;99.90;;;;;;8417786;28;20181;-71
2022/10/25 07:17:42;;;;;;;7.10;3.00;;;14.30;99.90;;;;;;8417924;28;20211;-70
2022/10/25 07:21:44;;;;;;;4.03;2.67;;;14.80;99.90;;;;;;8404954;28;20223;-70
2022/10/25 07:25:45;;;;;;;7.40;2.93;;;15.10;99.90;;;;;;8426742;28;20196;-71
2022/10/25 07:29:45;;;;;;;4.87;2.53;;;15.30;37.60;;;;;;8405083;28;20180;-70
2022/10/25 07:33:47;;;;;;;4.13;2.40;;;15.40;99.90;;;;;;8424870;28;20180;-72
2022/10/25 07:37:48;;;;;;;4.17;2.43;;;15.40;99.90;;;;;;8407904;28;20191;-72
2022/10/25 07:41:49;;;;;;;3.80;2.50;;;15.40;99.90;;;;;;8398685;28;20188;-72
2022/10/25 07:45:50;;;;;;;6.63;2.27;;;15.40;99.90;;;;;;8423857;28;20208;-71
2022/10/25 07:49:51;;;;;;;4.83;2.63;;;15.50;99.90;;;;;;8409653;28;20191;-72
2022/10/25 07:53:52;;;;;;;5.50;2.93;;;15.70;1.00;;;;;;8409243;28;20196;-72
2022/10/25 07:57:59;;;;;;;3.80;2.27;;;15.90;99.90;;;;;;8407461;28;20524;-71
2022/10/25 08:02:00;;;;;;;2.33;1.90;;;15.90;99.90;;;;;;8402156;28;20207;-72
2022/10/25 08:06:01;;;;;;;5.70;1.90;;;15.90;99.90;;;;;;8419618;28;20221;-70
2022/10/25 08:10:02;;;;;;;4.13;2.20;;;15.80;99.90;;;;;;8403413;28;20184;-70
2022/10/25 08:14:03;;;;;;;4.20;1.70;;;15.80;1.00;;;;;;8416512;28;20185;-74
2022/10/25 08:18:06;;;;;;;2.30;1.77;;;15.80;99.90;;;;;;8400554;28;20189;-71
2022/10/25 08:22:07;;;;;;;5.40;1.77;;;15.80;99.90;;;;;;8401855;28;20189;-71
2022/10/25 08:26:08;;;;;;;3.90;1.50;;;15.90;99.90;;;;;;8427825;28;20193;-71
2022/10/25 08:30:09;;;;;;;2.83;1.40;;;15.90;99.90;;;;;;8403440;28;20237;-71
2022/10/25 08:34:10;;;;;;;5.90;2.00;;;16.10;99.90;;;;;;8421600;28;20242;-71
2022/10/25 08:38:11;;;;;;;5.90;2.03;;;16.20;31.50;;;;;;8402743;28;20184;-70
2022/10/25 08:42:27;;;;;;;4.73;1.87;;;16.20;1.00;;;;;;8404603;28;20176;-70
2022/10/25 08:46:42;;;;;;;9.20;1.77;;;16.10;99.90;;;;;;8421854;28;20304;-68
2022/10/25 08:50:51;;;;;;;4.47;1.53;;;16.10;1.00;;;;;;8420190;28;21812;-70
2022/10/25 08:54:55;;;;;;;4.93;1.63;;;16.20;99.90;;;;;;8402157;28;20181;-69
2022/10/25 08:58:59;;;;;;;5.33;1.60;;;16.30;99.90;;;;;;8418340;28;20205;-68
2022/10/25 09:03:01;;;;;;;3.87;1.67;;;16.40;1.00;;;;;;8400016;28;20322;-69
2022/10/25 09:07:27;;;;;;;5.10;1.67;;;16.60;99.90;;;;;;8422298;28;20268;-70
2022/10/25 09:11:58;;;;;;;4.57;1.80;;;16.70;99.90;;;;;;8420868;28;20186;-69
2022/10/25 09:16:11;;;;;;;6.23;1.50;;;16.70;99.90;;;;;;8418925;28;20189;-69
2022/10/25 09:20:27;;;;;;;3.47;1.30;;;16.80;99.90;;;;;;8402943;28;20262;-69
2022/10/25 09:24:42;;;;;;;4.27;1.53;;;16.70;15.40;;;;;;8404479;28;20195;-70
2022/10/25 09:28:53;;;;;;;3.70;1.70;;;16.80;99.90;;;;;;8402512;28;20214;-71
2022/10/25 09:33:01;;;;;;;4.40;1.50;;;17.10;7.40;;;;;;8400809;28;20177;-70
2022/10/25 09:37:32;;;;;;;1.87;1.17;;;17.60;1.00;;;;;;8419099;28;20192;-72
2022/10/25 09:41:42;;;;;;;4.10;1.70;;;17.60;1.00;;;;;;8411584;28;20571;-71
2022/10/25 09:45:45;;;;;;;2.07;1.27;;;17.80;40.60;;;;;;8406233;28;20212;-72
2022/10/25 09:49:56;;;;;;;3.03;1.40;;;18.10;99.90;;;;;;8415101;28;20184;-72
2022/10/25 09:54:01;;;;;;;3.23;1.17;;;18.30;99.90;;;;;;8401301;28;20183;-70
2022/10/25 09:58:02;;;;;;;2.43;1.30;;;18.10;99.90;;;;;;8398829;28;20208;-71
2022/10/25 10:02:03;;;;;;;4.23;1.10;;;17.90;99.90;;;;;;8401236;28;20201;-69
2022/10/25 10:06:17;;;;;;;3.53;1.40;;;17.90;99.90;;;;;;8400777;28;20342;-71
2022/10/25 10:10:23;;;;;;;3.80;1.20;;;17.40;99.90;;;;;;8395607;28;20199;-70
2022/10/25 10:14:46;;;;;;;4.07;1.40;;;17.30;99.90;;;;;;8415596;28;20263;-70
2022/10/25 10:18:47;;;;;;;2.53;0.97;;;17.20;99.90;;;;;;8415389;28;20188;-70
2022/10/25 10:22:53;;;;;;;3.97;0.87;;;17.10;99.90;;;;;;8416470;28;20270;-71
2022/10/25 10:27:00;;;;;;;2.30;0.80;;;17.00;99.90;;;;;;8416647;28;20212;-70
2022/10/25 10:31:04;;;;;;;3.70;0.90;;;17.00;99.90;;;;;;8416601;28;20177;-71
2022/10/25 10:35:23;;;;;;;3.13;0.90;;;17.20;99.90;;;;;;8398512;28;20187;-69
2022/10/25 10:39:24;;;;;;;3.97;0.80;;;17.40;99.90;;;;;;8403844;28;20195;-71
2022/10/25 10:43:33;;;;;;;3.83;0.90;;;17.50;99.90;;;;;;8419338;28;20184;-72
2022/10/25 10:47:49;;;;;;;2.50;0.70;;;17.50;68.40;;;;;;8412913;28;20212;-70
2022/10/25 10:51:49;;;;;;;3.57;0.70;;;17.90;23.40;;;;;;8395658;28;20177;-70
2022/10/25 10:55:53;;;;;;;3.20;0.70;;;18.10;17.20;;;;;;8418408;28;20276;-69
2022/10/25 10:59:55;;;;;;;5.07;1.10;;;18.40;1.00;;;;;;8422041;28;20212;-71
2022/10/25 11:03:58;;;;;;;3.10;0.83;;;18.30;1.00;;;;;;8403873;28;20197;-70
2022/10/25 11:08:11;;;;;;;2.23;0.40;;;18.10;1.00;;;;;;8404171;28;20254;-70
2022/10/25 11:12:16;;;;;;;3.00;0.77;;;17.80;1.00;;;;;;8398401;28;20181;-70
2022/10/25 11:16:37;;;;;;;3.33;1.00;;;17.50;99.90;;;;;;8404771;28;20564;-69
2022/10/25 11:21:18;;;;;;;4.40;0.90;;;17.70;99.90;;;;;;8407083;28;20196;-74
2022/10/25 11:25:28;;;;;;;3.67;0.70;;;18.10;99.90;;;;;;8404360;28;20258;-71
2022/10/25 11:29:36;;;;;;;5.50;0.90;;;17.60;99.90;;;;;;8403641;28;20177;-69
2022/10/25 11:34:02;;;;;;;2.83;0.80;;;17.00;1.00;;;;;;8400051;28;20253;-74
2022/10/25 11:38:09;;;;;;;3.63;0.90;;;16.70;87.90;;;;;;8402311;28;20262;-70
2022/10/25 11:42:21;;;;;;;4.43;1.47;;;16.70;99.90;;;;;;8402921;28;20665;-69
2022/10/25 11:46:57;;;;;;;5.43;1.30;;;16.20;83.00;;;;;;8420882;28;20267;-68
2022/10/25 11:51:20;;;;;;;3.10;1.00;;;15.70;1.00;;;;;;8401610;28;20181;-71
2022/10/25 11:55:41;;;;;;;6.87;1.40;;;15.70;99.90;;;;;;8401892;28;20191;-71
2022/10/25 12:00:05;;;;;;;3.73;0.90;;;15.90;99.90;;;;;;8418926;28;20290;-69
2022/10/25 12:04:21;;;;;;;3.30;1.00;;;15.80;99.90;;;;;;8399103;28;20200;-68
2022/10/25 12:08:57;;;;;;;3.57;0.70;;;15.90;1.00;;;;;;8407461;28;20285;-68
2022/10/25 12:13:09;;;;;;;3.17;0.83;;;16.00;99.90;;;;;;8343888;28;20204;-69
2022/10/25 12:17:33;;;;;;;4.00;0.70;;;16.10;1.00;;;;;;8416139;28;20428;-71
2022/10/25 12:21:56;;;;;;;6.53;0.80;;;16.20;99.90;;;;;;8420445;28;20184;-71
2022/10/25 12:26:20;;;;;;;2.87;0.60;;;16.40;1.00;;;;;;8419259;28;20235;-70
2022/10/25 12:30:21;;;;;;;3.40;1.10;;;16.50;1.00;;;;;;8400294;28;20196;-71
2022/10/25 12:34:42;;;;;;;1.10;0.70;;;16.60;1.00;;;;;;8419087;28;20184;-70
2022/10/25 12:38:43;;;;;;;3.23;0.90;;;16.70;1.00;;;;;;8393619;28;20273;-70
2022/10/25 12:42:58;;;;;;;2.30;0.53;;;16.70;1.00;;;;;;8400623;28;20184;-70
2022/10/25 12:47:32;;;;;;;3.70;0.90;;;16.80;99.90;;;;;;8417516;28;20200;-71
2022/10/25 12:51:49;;;;;;;6.17;0.80;;;16.70;99.90;;;;;;8400267;28;20185;-70
2022/10/25 12:55:58;;;;;;;3.33;0.70;;;16.70;1.00;;;;;;8399392;28;20188;-71
2022/10/25 13:00:15;;;;;;;2.33;0.70;;;16.60;99.90;;;;;;8391087;28;20196;-69
2022/10/25 13:04:49;;;;;;;2.93;0.93;;;16.50;99.90;;;;;;8398946;28;20261;-70
2022/10/25 13:08:51;;;;;;;3.77;0.90;;;16.50;99.90;;;;;;8415501;28;20188;-70
2022/10/25 13:13:04;;;;;;;2.50;0.57;;;16.40;99.90;;;;;;8399684;28;20245;-70
2022/10/25 13:17:17;;;;;;;3.30;0.77;;;16.40;99.90;;;;;;8398872;28;20188;-70
2022/10/25 13:21:52;;;;;;;6.00;0.80;;;16.30;99.90;;;;;;8399407;28;20295;-70
2022/10/25 13:25:53;;;;;;;2.47;0.93;;;16.10;1.00;;;;;;8395792;28;20208;-70
2022/10/25 13:30:03;;;;;;;2.20;0.77;;;16.10;99.90;;;;;;8396926;28;20184;-71
2022/10/25 13:34:13;;;;;;;3.00;1.17;;;16.20;99.90;;;;;;8396026;28;20184;-72
2022/10/25 13:38:21;;;;;;;1.30;0.60;;;16.30;1.00;;;;;;8413878;28;20240;-71
2022/10/25 13:42:36;;;;;;;1.77;0.50;;;16.30;43.60;;;;;;8397067;28;20196;-72
2022/10/25 13:46:39;;;;;;;2.73;0.67;;;16.10;1.00;;;;;;8416827;28;20211;-68
2022/10/25 13:50:45;;;;;;;2.70;0.80;;;15.80;1.00;;;;;;8398440;28;20181;-71
2022/10/25 13:54:50;;;;;;;2.23;0.63;;;15.70;99.90;;;;;;8415342;28;20251;-71
2022/10/25 13:58:53;;;;;;;5.13;1.20;;;15.60;99.90;;;;;;8397529;28;20193;-71
2022/10/25 14:03:09;;;;;;;4.90;0.80;;;15.70;99.90;;;;;;8411930;28;20203;-72
2022/10/25 14:07:45;;;;;;;2.40;0.80;;;15.90;99.90;;;;;;8414470;28;20200;-72
2022/10/25 14:12:07;;;;;;;2.70;0.60;;;16.00;74.70;;;;;;8390160;28;20173;-73
2022/10/25 14:16:34;;;;;;;4.50;0.60;;;16.10;99.90;;;;;;8394621;28;20191;-73
2022/10/25 14:20:36;;;;;;;4.43;0.83;;;16.20;1.00;;;;;;8390838;28;20184;-72
2022/10/25 14:24:40;;;;;;;2.93;0.80;;;16.30;1.00;;;;;;8394905;28;20249;-75
2022/10/25 14:28:41;;;;;;;2.30;0.70;;;16.30;17.70;;;;;;8407828;28;20180;-71
2022/10/25 14:32:56;;;;;;;3.60;0.97;;;16.20;1.00;;;;;;8411489;28;20187;-72
2022/10/25 14:36:58;;;;;;;3.63;0.77;;;16.20;1.00;;;;;;8408149;28;20268;-72
2022/10/25 14:41:01;;;;;;;4.17;0.90;;;16.10;99.90;;;;;;8395450;28;20173;-71
2022/10/25 14:45:01;;;;;;;2.03;0.70;;;15.80;1.00;;;;;;8393159;28;20262;-71
2022/10/25 14:49:02;;;;;;;3.80;0.73;;;15.70;1.00;;;;;;8393534;28;20240;-69
2022/10/25 14:53:03;;;;;;;1.07;0.63;;;15.50;1.00;;;;;;8412071;28;20615;-71
2022/10/25 14:57:06;;;;;;;1.93;0.80;;;15.40;1.00;;;;;;8393511;28;20291;-69
2022/10/25 15:01:10;;;;;;;4.57;0.93;;;15.50;1.00;;;;;;8409682;28;20310;-73
2022/10/25 15:05:19;;;;;;;3.03;1.10;;;15.40;34.80;;;;;;8393611;28;20208;-68
2022/10/25 15:09:20;;;;;;;2.07;0.60;;;15.20;99.90;;;;;;8391302;28;20181;-70
2022/10/25 15:13:31;;;;;;;5.00;0.63;;;15.10;99.90;;;;;;8392897;28;20180;-70
2022/10/25 15:17:32;;;;;;;3.50;0.73;;;14.80;99.90;;;;;;8409297;28;20237;-70
2022/10/25 15:21:40;;;;;;;2.00;1.00;;;14.60;99.90;;;;;;8411452;28;20229;-70
2022/10/25 15:25:41;;;;;;;4.27;0.90;;;14.40;1.00;;;;;;8408914;28;20629;-71
2022/10/25 15:29:44;;;;;;;2.57;0.73;;;14.10;99.90;;;;;;8410546;28;20305;-71
2022/10/25 15:33:47;;;;;;;4.27;1.10;;;13.90;99.90;;;;;;8391681;28;20236;-70
2022/10/25 15:37:47;;;;;;;2.50;0.90;;;13.80;14.20;;;;;;8388102;28;20204;-70
2022/10/25 15:41:48;;;;;;;2.87;0.67;;;13.70;99.90;;;;;;8410881;28;20266;-71
2022/10/25 15:45:49;;;;;;;1.60;0.93;;;13.60;99.90;;;;;;8415053;28;20661;-70
2022/10/25 15:49:52;;;;;;;2.57;0.90;;;13.50;24.30;;;;;;8396776;28;20185;-70
2022/10/25 15:53:53;;;;;;;2.83;0.67;;;13.40;99.90;;;;;;8398924;28;20276;-70
2022/10/25 15:57:54;;;;;;;1.73;0.60;;;13.30;99.90;;;;;;8395688;28;20203;-70
2022/10/25 16:01:55;;;;;;;2.30;0.53;;;13.30;99.90;;;;;;8396499;28;20242;-70
2022/10/25 16:05:55;;;;;;;1.93;0.50;;;13.30;99.90;;;;;;8388628;28;20204;-70
2022/10/25 16:09:56;;;;;;;2.23;0.73;;;13.30;99.90;;;;;;8396242;28;20173;-71
2022/10/25 16:13:57;;;;;;;3.93;0.97;;;13.30;99.90;;;;;;8415432;28;20180;-71
2022/10/25 16:17:58;;;;;;;2.77;0.87;;;13.20;1.00;;;;;;8399310;28;20181;-71
2022/10/25 16:21:59;;;;;;;2.73;0.80;;;13.10;1.00;;;;;;8416713;28;20176;-71
2022/10/25 16:26:00;;;;;;;1.23;0.60;;;13.00;1.00;;;;;;8417002;28;20204;-70
2022/10/25 16:30:01;;;;;;;3.47;0.93;;;12.90;99.90;;;;;;8415512;28;20183;-71
2022/10/25 16:34:05;;;;;;;1.67;0.77;;;12.90;99.90;;;;;;8417511;28;20185;-70
2022/10/25 16:38:06;;;;;;;3.77;0.90;;;12.90;99.90;;;;;;8402076;28;20217;-70
2022/10/25 16:42:30;;;;;;;2.70;1.00;;;12.90;47.30;;;;;;8401982;28;20177;-70
2022/10/25 16:46:31;;;;;;;2.83;1.03;;;12.90;99.90;;;;;;8401058;28;20262;-71
2022/10/25 16:50:33;;;;;;;1.70;0.77;;;12.80;1.00;;;;;;8421619;28;20172;-70
2022/10/25 16:54:34;;;;;;;3.10;1.30;;;12.70;99.90;;;;;;8420036;28;20498;-71
2022/10/25 16:58:34;;;;;;;2.83;1.47;;;12.50;1.00;;;;;;8418346;28;20235;-72
2022/10/25 17:02:37;;;;;;;2.53;1.70;;;12.30;99.90;;;;;;8421302;28;20196;-71
2022/10/25 17:06:37;;;;;;;4.67;1.60;;;12.20;99.90;;;;;;8401573;28;20327;-71
2022/10/25 17:10:38;;;;;;;2.03;1.50;;;12.00;9.60;;;;;;8403354;28;20199;-70
2022/10/25 17:14:39;;;;;;;1.67;1.30;;;11.80;99.90;;;;;;8405159;28;20248;-71
2022/10/25 17:18:41;;;;;;;2.30;1.53;;;11.70;99.90;;;;;;8421156;28;20189;-70
2022/10/25 17:22:42;;;;;;;3.93;2.03;;;11.60;1.00;;;;;;8404989;28;20204;-70
2022/10/25 17:26:43;;;;;;;4.33;2.53;;;11.50;1.00;;;;;;8401902;28;20235;-71
2022/10/25 17:30:44;;;;;;;5.50;3.27;;;11.40;62.80;;;;;;8403930;28;20189;-72
2022/10/25 17:34:44;;;;;;;9.10;4.07;;;11.40;99.90;;;;;;8403586;28;20183;-71
2022/10/25 17:38:46;;;;;;;11.10;3.37;;;11.30;99.90;;;;;;8401317;28;20188;-72
2022/10/25 17:42:47;;;;;;;5.10;3.20;;;11.30;99.90;;;;;;8401814;28;20185;-70
2022/10/25 17:46:48;;;;;;;5.77;3.27;;;11.30;99.90;;;;;;8401822;28;20211;-70
2022/10/25 17:50:49;;;;;;;4.33;2.77;;;11.20;99.90;;;;;;8402542;28;20319;-70
2022/10/25 17:54:49;;;;;;;6.23;2.80;;;11.10;99.90;;;;;;8421342;28;20279;-70
2022/10/25 17:58:51;;;;;;;6.50;3.80;;;11.00;99.90;;;;;;8399429;28;20268;-70
2022/10/25 18:02:52;;;;;;;6.07;3.57;;;10.90;99.90;;;;;;8402609;28;20203;-70
2022/10/25 18:06:53;;;;;;;7.40;4.00;;;10.90;99.90;;;;;;8418903;28;20207;-71
2022/10/25 18:10:54;;;;;;;7.20;4.87;;;10.80;99.90;;;;;;8402256;28;20226;-70
2022/10/25 18:14:55;;;;;;;9.27;5.13;;;10.70;99.90;;;;;;8400516;28;20200;-71
2022/10/25 18:18:58;;;;;;;8.87;5.63;;;10.70;99.90;;;;;;8399958;28;20211;-71
2022/10/25 18:22:59;;;;;;;7.57;5.30;;;10.60;99.90;;;;;;8399982;28;20179;-73
2022/10/25 18:27:00;;;;;;;9.30;5.70;;;10.60;99.90;;;;;;8416181;28;20207;-70
2022/10/25 18:31:03;;;;;;;8.27;5.80;;;10.50;99.90;;;;;;8397280;28;20294;-71
2022/10/25 18:35:04;;;;;;;9.87;6.17;;;10.50;99.90;;;;;;8398975;28;20243;-70
2022/10/25 18:39:05;;;;;;;10.77;6.20;;;10.40;99.90;;;;;;8416055;28;20183;-70
2022/10/25 18:43:05;;;;;;;9.67;6.23;;;10.40;99.90;;;;;;8394708;28;20282;-71
2022/10/25 18:47:06;;;;;;;9.27;5.70;;;10.30;99.90;;;;;;8397813;28;20234;-71
2022/10/25 18:51:10;;;;;;;9.23;5.97;;;10.20;99.90;;;;;;8396875;28;20171;-71
2022/10/25 18:55:11;;;;;;;9.67;5.67;;;10.10;99.90;;;;;;8418225;28;20182;-71
2022/10/25 18:59:12;;;;;;;9.73;6.27;;;10.10;99.90;;;;;;8398036;28;20238;-71
2022/10/25 19:03:15;;;;;;;10.80;5.93;;;10.00;99.90;;;;;;8399276;28;20208;-70
2022/10/25 19:07:16;;;;;;;9.57;5.70;;;10.00;99.90;;;;;;8397162;28;20214;-70
2022/10/25 19:11:16;;;;;;;12.37;6.80;;;10.10;99.90;;;;;;8402660;28;20311;-71
2022/10/25 19:15:17;;;;;;;9.03;6.00;;;10.10;99.90;;;;;;8415929;28;20210;-71
2022/10/25 19:19:18;;;;;;;9.40;6.17;;;10.10;99.90;;;;;;8404035;28;20209;-70
2022/10/25 19:23:20;;;;;;;7.57;5.83;;;10.20;99.90;;;;;;8405771;28;20275;-70
2022/10/25 19:27:20;;;;;;;9.70;6.87;;;10.20;99.90;;;;;;8422780;28;20214;-70
2022/10/25 19:31:22;;;;;;;9.30;5.93;;;10.10;99.90;;;;;;8424156;28;20186;-71
2022/10/25 19:35:23;;;;;;;10.23;5.53;;;10.10;99.90;;;;;;8405773;28;20281;-70
2022/10/25 19:39:25;;;;;;;9.00;6.20;;;10.10;99.90;;;;;;8404630;28;20189;-69
2022/10/25 19:43:26;;;;;;;9.17;6.03;;;10.10;99.90;;;;;;8407063;28;20217;-71
2022/10/25 19:47:27;;;;;;;8.53;5.67;;;10.10;99.90;;;;;;8404516;28;20206;-72
2022/10/25 19:51:28;;;;;;;9.67;6.07;;;10.00;99.90;;;;;;8425438;28;20207;-71
2022/10/25 19:55:29;;;;;;;10.83;6.00;;;10.00;99.90;;;;;;8424154;28;20259;-70
2022/10/25 19:59:30;;;;;;;9.53;6.80;;;10.00;99.90;;;;;;8411519;28;20296;-71
2022/10/25 20:03:31;;;;;;;12.00;6.47;;;10.00;99.90;;;;;;8398859;28;20210;-71
2022/10/25 20:07:32;;;;;;;9.17;6.37;;;9.90;99.90;;;;;;8399732;28;20354;-70
2022/10/25 20:11:33;;;;;;;12.17;7.30;;;9.90;99.90;;;;;;8417836;28;20194;-70
2022/10/25 20:15:34;;;;;;;10.13;7.00;;;9.80;99.90;;;;;;8401475;28;20558;-69
2022/10/25 20:19:35;;;;;;;11.03;6.87;;;9.80;99.90;;;;;;8398890;28;20269;-70
2022/10/25 20:23:37;;;;;;;12.00;7.97;;;9.70;99.90;;;;;;8418856;28;20246;-71
2022/10/25 20:27:38;;;;;;;12.67;7.70;;;9.70;99.90;;;;;;8400005;28;20214;-71
2022/10/25 20:31:39;;;;;;;10.73;8.03;;;9.70;99.90;;;;;;8398450;28;20187;-71
2022/10/25 20:35:41;;;;;;;14.63;9.13;;;9.70;99.90;;;;;;8401959;28;20203;-70
2022/10/25 20:39:42;;;;;;;11.40;8.13;;;9.80;99.90;;;;;;8399702;28;20192;-71
2022/10/25 20:43:51;;;;;;;11.33;7.87;;;9.80;99.90;;;;;;8401853;28;20190;-71
2022/10/25 20:47:53;;;;;;;9.80;7.93;;;9.80;99.90;;;;;;8417899;28;20203;-72
2022/10/25 20:51:54;;;;;;;11.13;7.80;;;9.70;99.90;;;;;;8418356;28;20183;-71
2022/10/25 20:55:55;;;;;;;16.00;9.77;;;9.60;99.90;;;;;;8418861;28;20180;-71
2022/10/25 20:59:56;;;;;;;12.47;8.70;;;9.50;99.90;;;;;;8414971;28;20226;-71
2022/10/25 21:03:57;;;;;;;13.83;9.07;;;9.40;99.90;;;;;;8396072;28;20279;-71
2022/10/25 21:07:57;;;;;;;11.27;8.77;;;9.50;99.90;;;;;;8398481;28;20619;-71
2022/10/25 21:11:58;;;;;;;14.77;9.43;;;9.60;99.90;;;;;;8419239;28;20188;-71
2022/10/25 21:16:05;;;;;;;12.90;9.00;;;9.50;99.90;;;;;;8398633;28;20192;-71
2022/10/25 21:20:06;;;;;;;11.37;8.93;;;9.50;99.90;;;;;;8387413;28;20500;-71